Daydream Believer — V7XJ3 — position and weather

sailwx.info

Track history (hours):
 
Tides and Currents Weather Stations Pressure Air Temp Water Temp Dewpoint Dewpoint Depression Visibility Wind Speed Wind Dir Waves Ship Positions

Daydream Believer

Last reported at 2018-Feb-14 15:33 UTC. Time now 2018-Feb-17 20:08 UTC.
Position N 33°58' E 130°52'.

Length 178 m; draft 7.5 m.

Type: Ship. MMSI: 538004493.

Date/timePositionNaut miles runAvg speedWind from/ knotsBaromVisibWave heightAir tempDewpointWater temp
2018-Feb-14 15:33N 33°58' E 130°52'0 0.0
2018-Feb-14 15:31N 33°58' E 130°52'4894.5
2018-Feb-14 15:00N 34°01' E 129°55'610.6
2018-Feb-14 14:24N 34°01' E 130°03'41107.1
2018-Feb-14 14:00N 33°58' E 130°52'0 0.0
2018-Feb-14 13:30N 33°58' E 130°52'0 0.0
2018-Feb-14 13:00N 33°58' E 130°52'0 0.0
2018-Feb-14 12:30N 33°58' E 130°52'0 0.0
2018-Feb-14 12:00N 33°58' E 130°52'0 0.0
2018-Feb-14 11:30N 33°58' E 130°52'0 0.0
2018-Feb-14 11:00N 33°58' E 130°52'2 4.9
2018-Feb-14 10:30N 34°00' E 130°52'5 9.3
2018-Feb-14 10:00N 33°57' E 130°57'1 2.5
2018-Feb-14 09:30N 33°56' E 130°56'5 9.1
2018-Feb-14 09:00N 33°59' E 131°00'611.2
2018-Feb-14 08:30N 33°55' E 131°05'5 9.8
2018-Feb-14 08:00N 33°53' E 131°11'612.7
2018-Feb-14 07:30N 33°51' E 131°18'713.6
2018-Feb-14 07:00N 33°49' E 131°26'713.4
2018-Feb-14 06:30N 33°48' E 131°34'713.1
2018-Feb-14 06:00N 33°47' E 131°41'611.6
2018-Feb-14 05:30N 33°42' E 131°46'612.6
2018-Feb-14 05:00N 33°36' E 131°49'612.1
2018-Feb-14 04:30N 33°31' E 131°52'612.2
2018-Feb-14 04:00N 33°25' E 131°48'612.5
2018-Feb-14 03:30N 33°21' E 131°43'5 9.9
2018-Feb-14 03:00N 33°17' E 131°40'  
2018-Feb-11 22:35N 33°16' E 131°40'0 0.1
2018-Feb-11 22:28N 33°16' E 131°40'1 2.1
2018-Feb-11 21:59N 33°17' E 131°40'4 7.2
2018-Feb-11 21:29N 33°17' E 131°44'2 1.0
2018-Feb-11 19:18N 33°16' E 131°46'0 0.0
2018-Feb-11 18:48N 33°16' E 131°46'0 0.0
2018-Feb-11 18:24N 33°16' E 131°46'0 0.0
2018-Feb-11 17:48N 33°16' E 131°46'0 0.1
2018-Feb-11 17:24N 33°16' E 131°46'0 0.1
2018-Feb-11 16:54N 33°16' E 131°46'0 0.0
2018-Feb-11 16:30N 33°16' E 131°46'0 0.0
2018-Feb-11 15:54N 33°16' E 131°46'0 0.0
2018-Feb-11 15:18N 33°16' E 131°46'0 0.0
2018-Feb-11 14:54N 33°16' E 131°46'0 0.0
2018-Feb-11 14:18N 33°16' E 131°46'0 0.0
2018-Feb-11 10:54N 33°16' E 131°46'0 0.1
2018-Feb-11 10:30N 33°16' E 131°46'0 0.0
2018-Feb-10 22:48N 33°16' E 131°46'0 0.0
2018-Feb-10 21:06N 33°16' E 131°46'0 0.3
2018-Feb-10 21:00N 33°16' E 131°46'0 0.0
2018-Feb-10 20:24N 33°16' E 131°46'0 0.0
2018-Feb-10 16:18N 33°16' E 131°46'0 0.3
2018-Feb-10 15:54N 33°16' E 131°46'0 0.0
2018-Feb-10 14:48N 33°16' E 131°46'0 0.0
2018-Feb-10 14:18N 33°16' E 131°46'0 0.0
2018-Feb-10 13:54N 33°16' E 131°46'0 0.0
2018-Feb-10 10:36N 33°16' E 131°46'0 0.0
2018-Feb-10 10:12N 33°16' E 131°46'0 0.0
2018-Feb-10 09:06N 33°16' E 131°46'0 0.0
2018-Feb-10 07:42N 33°16' E 131°46'0 0.1
2018-Feb-10 07:18N 33°16' E 131°46'0 0.0
2018-Feb-10 07:00N 33°16' E 131°46'0 0.0
2018-Feb-10 06:24N 33°16' E 131°46'0 0.1
2018-Feb-10 05:48N 33°16' E 131°46'0 0.0
2018-Feb-10 05:30N 33°16' E 131°46'0 0.0
2018-Feb-10 05:00N 33°16' E 131°46'0 0.0
2018-Feb-10 04:30N 33°16' E 131°46'0 0.1
2018-Feb-10 04:00N 33°16' E 131°46'0 0.0
2018-Feb-10 03:24N 33°16' E 131°46'0 0.1
2018-Feb-10 03:00N 33°16' E 131°46'0 0.1
2018-Feb-10 01:00N 33°16' E 131°46'24 0.5
2018-Feb-08 01:30N 33°40' E 131°45'611.8
2018-Feb-08 00:59N 33°46' E 131°44'510.7
2018-Feb-08 00:30N 33°52' E 131°44'612.3
2018-Feb-08 00:00N 33°58' E 131°45'4 8.7
2018-Feb-07 23:30N 34°02' E 131°47'2 0.1
2018-Feb-07 04:37N 34°03' E 131°46'0 0.0
2018-Feb-07 04:19N 34°03' E 131°46'0 0.0
2018-Feb-07 03:55N 34°03' E 131°46'0 0.0
2018-Feb-07 03:01N 34°03' E 131°46'0 0.0
2018-Feb-06 23:55N 34°03' E 131°46'0 0.0
2018-Feb-06 23:25N 34°03' E 131°46'0 0.0
2018-Feb-06 22:55N 34°03' E 131°46'0 0.0
2018-Feb-06 22:19N 34°03' E 131°46'0 0.0
2018-Feb-06 21:55N 34°03' E 131°46'0 0.0
2018-Feb-06 21:13N 34°03' E 131°46'0 0.0
2018-Feb-05 21:49N 34°03' E 131°46'0 0.0
2018-Feb-05 19:37N 34°03' E 131°46'0 0.0
2018-Feb-05 19:25N 34°03' E 131°46'0 0.0
2018-Feb-05 18:55N 34°03' E 131°46'0 0.0
2018-Feb-05 18:25N 34°03' E 131°46'0 0.0
2018-Feb-05 12:07N 34°03' E 131°46'0 0.0
2018-Feb-05 11:55N 34°03' E 131°46'0 0.0
2018-Feb-05 11:19N 34°03' E 131°46'0 0.0
2018-Feb-05 02:55N 34°03' E 131°46'0 0.9
2018-Feb-05 02:30N 34°03' E 131°46'2 4.8
2018-Feb-05 02:01N 34°02' E 131°43'3 5.8
2018-Feb-05 01:30N 34°00' E 131°40'3 6.1
2018-Feb-05 01:01N 33°57' E 131°39'3 6.9
2018-Feb-05 00:31N 33°54' E 131°40'4 8.4
2018-Feb-05 00:01N 33°50' E 131°41'4 8.7
2018-Feb-04 23:30N 33°46' E 131°43'4 8.6
2018-Feb-04 23:01N 33°42' E 131°46'4 8.9
2018-Feb-04 22:31N 33°38' E 131°48'5 9.0
2018-Feb-04 22:00N 33°34' E 131°50'510.3
2018-Feb-04 21:30N 33°30' E 131°53'510.3
2018-Feb-04 20:59N 33°25' E 131°56'10 9.8
2018-Feb-04 20:00N 33°16' E 132°02'5 8.9
2018-Feb-04 19:27N 33°12' E 132°05'4 9.2
2018-Feb-04 18:59N 33°09' E 132°08'  
Track history (hours):
 
Tides and Currents Weather Stations Pressure Air Temp Water Temp Dewpoint Dewpoint Depression Visibility Wind Speed Wind Dir Waves Ship Positions

Daydream Believer

Last reported at 2018-Feb-14 15:33 UTC. Time now 2018-Feb-17 20:08 UTC.
Position N 33°58' E 130°52'.

Length 178 m; draft 7.5 m.

Type: Ship. MMSI: 538004493.

Date/timePositionNaut miles runAvg speedWind from/ knotsBaromVisibWave heightAir tempDewpointWater temp
2018-Feb-14 15:33N 33°58' E 130°52'0 0.0
2018-Feb-14 15:31N 33°58' E 130°52'4894.5
2018-Feb-14 15:00N 34°01' E 129°55'610.6
2018-Feb-14 14:24N 34°01' E 130°03'41107.1
2018-Feb-14 14:00N 33°58' E 130°52'0 0.0
2018-Feb-14 13:30N 33°58' E 130°52'0 0.0
2018-Feb-14 13:00N 33°58' E 130°52'0 0.0
2018-Feb-14 12:30N 33°58' E 130°52'0 0.0
2018-Feb-14 12:00N 33°58' E 130°52'0 0.0
2018-Feb-14 11:30N 33°58' E 130°52'0 0.0
2018-Feb-14 11:00N 33°58' E 130°52'2 4.9
2018-Feb-14 10:30N 34°00' E 130°52'5 9.3
2018-Feb-14 10:00N 33°57' E 130°57'1 2.5
2018-Feb-14 09:30N 33°56' E 130°56'5 9.1
2018-Feb-14 09:00N 33°59' E 131°00'611.2
2018-Feb-14 08:30N 33°55' E 131°05'5 9.8
2018-Feb-14 08:00N 33°53' E 131°11'612.7
2018-Feb-14 07:30N 33°51' E 131°18'713.6
2018-Feb-14 07:00N 33°49' E 131°26'713.4
2018-Feb-14 06:30N 33°48' E 131°34'713.1
2018-Feb-14 06:00N 33°47' E 131°41'611.6
2018-Feb-14 05:30N 33°42' E 131°46'612.6
2018-Feb-14 05:00N 33°36' E 131°49'612.1
2018-Feb-14 04:30N 33°31' E 131°52'612.2
2018-Feb-14 04:00N 33°25' E 131°48'612.5
2018-Feb-14 03:30N 33°21' E 131°43'5 9.9
2018-Feb-14 03:00N 33°17' E 131°40'  
2018-Feb-11 22:35N 33°16' E 131°40'0 0.1
2018-Feb-11 22:28N 33°16' E 131°40'1 2.1
2018-Feb-11 21:59N 33°17' E 131°40'4 7.2
2018-Feb-11 21:29N 33°17' E 131°44'2 1.0
2018-Feb-11 19:18N 33°16' E 131°46'0 0.0
2018-Feb-11 18:48N 33°16' E 131°46'0 0.0
2018-Feb-11 18:24N 33°16' E 131°46'0 0.0
2018-Feb-11 17:48N 33°16' E 131°46'0 0.1
2018-Feb-11 17:24N 33°16' E 131°46'0 0.1
2018-Feb-11 16:54N 33°16' E 131°46'0 0.0
2018-Feb-11 16:30N 33°16' E 131°46'0 0.0
2018-Feb-11 15:54N 33°16' E 131°46'0 0.0
2018-Feb-11 15:18N 33°16' E 131°46'0 0.0
2018-Feb-11 14:54N 33°16' E 131°46'0 0.0
2018-Feb-11 14:18N 33°16' E 131°46'0 0.0
2018-Feb-11 10:54N 33°16' E 131°46'0 0.1
2018-Feb-11 10:30N 33°16' E 131°46'0 0.0
2018-Feb-10 22:48N 33°16' E 131°46'0 0.0
2018-Feb-10 21:06N 33°16' E 131°46'0 0.3
2018-Feb-10 21:00N 33°16' E 131°46'0 0.0
2018-Feb-10 20:24N 33°16' E 131°46'0 0.0
2018-Feb-10 16:18N 33°16' E 131°46'0 0.3
2018-Feb-10 15:54N 33°16' E 131°46'0 0.0
2018-Feb-10 14:48N 33°16' E 131°46'0 0.0
2018-Feb-10 14:18N 33°16' E 131°46'0 0.0
2018-Feb-10 13:54N 33°16' E 131°46'0 0.0
2018-Feb-10 10:36N 33°16' E 131°46'0 0.0
2018-Feb-10 10:12N 33°16' E 131°46'0 0.0
2018-Feb-10 09:06N 33°16' E 131°46'0 0.0
2018-Feb-10 07:42N 33°16' E 131°46'0 0.1
2018-Feb-10 07:18N 33°16' E 131°46'0 0.0
2018-Feb-10 07:00N 33°16' E 131°46'0 0.0
2018-Feb-10 06:24N 33°16' E 131°46'0 0.1
2018-Feb-10 05:48N 33°16' E 131°46'0 0.0
2018-Feb-10 05:30N 33°16' E 131°46'0 0.0
2018-Feb-10 05:00N 33°16' E 131°46'0 0.0
2018-Feb-10 04:30N 33°16' E 131°46'0 0.1
2018-Feb-10 04:00N 33°16' E 131°46'0 0.0
2018-Feb-10 03:24N 33°16' E 131°46'0 0.1
2018-Feb-10 03:00N 33°16' E 131°46'0 0.1
2018-Feb-10 01:00N 33°16' E 131°46'24 0.5
2018-Feb-08 01:30N 33°40' E 131°45'611.8
2018-Feb-08 00:59N 33°46' E 131°44'510.7
2018-Feb-08 00:30N 33°52' E 131°44'612.3
2018-Feb-08 00:00N 33°58' E 131°45'4 8.7
2018-Feb-07 23:30N 34°02' E 131°47'2 0.1
2018-Feb-07 04:37N 34°03' E 131°46'0 0.0
2018-Feb-07 04:19N 34°03' E 131°46'0 0.0
2018-Feb-07 03:55N 34°03' E 131°46'0 0.0
2018-Feb-07 03:01N 34°03' E 131°46'0 0.0
2018-Feb-06 23:55N 34°03' E 131°46'0 0.0
2018-Feb-06 23:25N 34°03' E 131°46'0 0.0
2018-Feb-06 22:55N 34°03' E 131°46'0 0.0
2018-Feb-06 22:19N 34°03' E 131°46'0 0.0
2018-Feb-06 21:55N 34°03' E 131°46'0 0.0
2018-Feb-06 21:13N 34°03' E 131°46'0 0.0
2018-Feb-05 21:49N 34°03' E 131°46'0 0.0
2018-Feb-05 19:37N 34°03' E 131°46'0 0.0
2018-Feb-05 19:25N 34°03' E 131°46'0 0.0
2018-Feb-05 18:55N 34°03' E 131°46'0 0.0
2018-Feb-05 18:25N 34°03' E 131°46'0 0.0
2018-Feb-05 12:07N 34°03' E 131°46'0 0.0
2018-Feb-05 11:55N 34°03' E 131°46'0 0.0
2018-Feb-05 11:19N 34°03' E 131°46'0 0.0
2018-Feb-05 02:55N 34°03' E 131°46'0 0.9
2018-Feb-05 02:30N 34°03' E 131°46'2 4.8
2018-Feb-05 02:01N 34°02' E 131°43'3 5.8
2018-Feb-05 01:30N 34°00' E 131°40'3 6.1
2018-Feb-05 01:01N 33°57' E 131°39'3 6.9
2018-Feb-05 00:31N 33°54' E 131°40'4 8.4
2018-Feb-05 00:01N 33°50' E 131°41'4 8.7
2018-Feb-04 23:30N 33°46' E 131°43'4 8.6
2018-Feb-04 23:01N 33°42' E 131°46'4 8.9
2018-Feb-04 22:31N 33°38' E 131°48'5 9.0
2018-Feb-04 22:00N 33°34' E 131°50'510.3
2018-Feb-04 21:30N 33°30' E 131°53'510.3
2018-Feb-04 20:59N 33°25' E 131°56'10 9.8
2018-Feb-04 20:00N 33°16' E 132°02'5 8.9
2018-Feb-04 19:27N 33°12' E 132°05'4 9.2
2018-Feb-04 18:59N 33°09' E 132°08'  

Dump ship's entire track history